This is the latest recevied weather packets stored in our database for station/object OE-11099. If no packets are shown the sender has not sent any weather packets the latest 10 day(s).
| Time | Temp. | Humidity | Pressure | Rain* | Wind** | Luminosity | Snow |
|---|---|---|---|---|---|---|---|
| 1787975106 | 13.33° C | 94% | 1018.8 hPa | 0 mm | - | 0 W/m² | - |
| 1787974505 | 13.33° C | 94% | 1018.8 hPa | 0 mm | - | 0 W/m² | - |
| 1787973906 | 13.33° C | 94% | 1018.9 hPa | 0 mm | - | 0 W/m² | - |
| 1787973078 | 13.89° C | 91% | 1018.8 hPa | 0 mm | - | 0 W/m² | - |
| 1787972706 | 14.44° C | 90% | 1018.7 hPa | 0 mm | - | 0 W/m² | - |
| 1787972106 | 15° C | 86% | 1018.6 hPa | 0 mm | - | 0 W/m² | - |
| 1787971279 | 15° C | 87% | 1018.6 hPa | 0 mm | - | 0 W/m² | - |
| 1787970906 | 15° C | 85% | 1018.5 hPa | 0 mm | - | 0 W/m² | - |
| 1787970306 | 15° C | 86% | 1018.5 hPa | 0 mm | - | 0 W/m² | - |
| 1787969478 | 14.44° C | 86% | 1018.7 hPa | 0 mm | - | 0 W/m² | - |
| 1787969105 | 15° C | 89% | 1018.9 hPa | 0 mm | - | 0 W/m² | - |
| 1787968506 | 15° C | 85% | 1018.8 hPa | 0 mm | - | 0 W/m² | - |
| 1787967678 | 15° C | 88% | 1019.2 hPa | 0 mm | - | 0 W/m² | - |
| 1787967306 | 15° C | 89% | 1019.2 hPa | 0 mm | - | 0 W/m² | - |
| 1787966706 | 15° C | 89% | 1019.3 hPa | 0 mm | - | 0 W/m² | - |
| 1787965879 | 15° C | 89% | 1019.3 hPa | 0 mm | - | 0 W/m² | - |
| 1787964906 | 15.56° C | 85% | 1019.2 hPa | 0 mm | - | 0 W/m² | - |
| 1787964079 | 15.56° C | 85% | 1019.3 hPa | 0 mm | - | 0 W/m² | - |
| 1787963706 | 15.56° C | 82% | 1019.3 hPa | 0 mm | - | 0 W/m² | - |
| 1787963105 | 15.56° C | 83% | 1019.5 hPa | 0 mm | - | 0 W/m² | - |
| 1787962278 | 15° C | 84% | 1019.4 hPa | 0 mm | - | 0 W/m² | - |
| 1787961905 | 15° C | 87% | 1019.4 hPa | 0 mm | - | 0 W/m² | - |
| 1787961306 | 15° C | 87% | 1019.4 hPa | 0 mm | - | 0 W/m² | - |
| 1787960479 | 15° C | 86% | 1019.4 hPa | 0 mm | - | 0 W/m² | - |
| 1787960106 | 15.56° C | 84% | 1019.4 hPa | 0 mm | - | 0 W/m² | - |
* Rain latest hour (hover to see other rain measurements)
** Current wind speed in m/s (hover to see current wind gust speed)